createdAt,value
2023-12-12T00:04:11.050Z,100.00
2023-12-12T00:14:35.659Z,100.00
2023-12-12T00:24:59.362Z,100.00
2023-12-12T00:35:23.970Z,100.00
2023-12-12T00:45:48.561Z,100.00
2023-12-12T00:56:12.575Z,100.00
2023-12-12T01:06:37.454Z,100.00
2023-12-12T01:17:02.262Z,100.00
2023-12-12T01:27:25.979Z,100.00
2023-12-12T01:37:51.226Z,100.00
2023-12-12T01:48:16.346Z,100.00
2023-12-12T01:58:42.113Z,100.00
2023-12-12T02:09:06.691Z,99.95
2023-12-12T02:19:31.241Z,99.51
2023-12-12T02:29:55.881Z,99.02
2023-12-12T02:40:21.010Z,98.58
2023-12-12T02:50:45.597Z,98.33
2023-12-12T03:01:13.411Z,98.22
2023-12-12T03:11:38.071Z,98.11
2023-12-12T03:22:02.224Z,97.95
2023-12-12T03:32:25.811Z,98.02
2023-12-12T03:42:53.749Z,98.36
2023-12-12T03:53:18.434Z,98.52
2023-12-12T04:03:42.503Z,99.19
2023-12-12T04:14:06.917Z,99.98
2023-12-12T04:24:31.295Z,100.00
2023-12-12T04:34:55.387Z,100.00
2023-12-12T04:45:20.295Z,100.00
2023-12-12T04:55:44.550Z,100.00
2023-12-12T05:06:11.799Z,100.00
2023-12-12T05:16:36.541Z,100.00
2023-12-12T05:27:00.666Z,100.00
2023-12-12T05:37:24.424Z,100.00
2023-12-12T05:47:50.420Z,100.00
2023-12-12T05:58:14.830Z,100.00
2023-12-12T06:08:38.807Z,100.00
2023-12-12T06:19:07.060Z,100.00
2023-12-12T06:29:31.473Z,100.00
2023-12-12T06:39:56.009Z,100.00
2023-12-12T06:50:20.817Z,100.00
2023-12-12T07:00:45.790Z,100.00
2023-12-12T07:11:09.938Z,100.00
2023-12-12T07:21:47.029Z,100.00
2023-12-12T07:32:12.776Z,100.00
2023-12-12T07:42:37.055Z,100.00
2023-12-12T07:53:02.449Z,100.00
2023-12-12T08:03:27.565Z,100.00
2023-12-12T08:13:52.600Z,100.00
2023-12-12T08:24:17.586Z,100.00
2023-12-12T08:34:42.263Z,100.00
2023-12-12T08:45:07.553Z,99.93
2023-12-12T08:55:33.128Z,99.40
2023-12-12T09:05:58.392Z,98.72
2023-12-12T09:16:22.670Z,98.22
2023-12-12T09:26:48.056Z,97.92
2023-12-12T09:37:12.486Z,97.34
2023-12-12T09:47:37.665Z,95.77
2023-12-12T09:58:02.447Z,95.37
2023-12-12T10:08:30.082Z,95.35
2023-12-12T10:18:56.369Z,94.34
2023-12-12T10:29:24.398Z,93.48
2023-12-12T10:39:50.489Z,93.45
2023-12-12T10:50:16.636Z,93.45
2023-12-12T11:00:42.504Z,93.70
2023-12-12T11:11:11.506Z,93.44
2023-12-12T11:21:51.392Z,92.21
2023-12-12T11:32:20.000Z,91.97
2023-12-12T11:42:46.510Z,91.51
2023-12-12T11:53:10.572Z,91.96
2023-12-12T12:03:35.144Z,91.80
2023-12-12T12:13:59.226Z,91.97
2023-12-12T12:24:23.560Z,92.59
2023-12-12T12:34:48.417Z,93.30
2023-12-12T12:45:13.012Z,94.04
2023-12-12T12:55:42.392Z,94.31
2023-12-12T13:06:10.314Z,94.79
2023-12-12T13:16:35.414Z,94.92
2023-12-12T13:26:59.414Z,95.12
2023-12-12T13:37:23.915Z,95.44
2023-12-12T13:47:48.412Z,95.47
2023-12-12T13:58:12.859Z,95.39
2023-12-12T14:08:37.504Z,95.38
2023-12-12T14:19:02.493Z,95.47
2023-12-12T14:29:26.648Z,95.69
2023-12-12T14:39:51.334Z,95.80
2023-12-12T14:50:15.504Z,95.91
2023-12-12T15:00:39.396Z,95.93
2023-12-12T15:11:03.957Z,95.90
2023-12-12T15:21:28.987Z,96.14
2023-12-12T15:31:53.615Z,96.38
2023-12-12T15:42:17.839Z,96.90
2023-12-12T15:52:42.546Z,96.85
2023-12-12T16:03:10.890Z,96.91
2023-12-12T16:13:37.683Z,97.26
2023-12-12T16:24:03.907Z,96.89
2023-12-12T16:34:28.140Z,96.58
2023-12-12T16:44:53.477Z,96.52
2023-12-12T16:55:18.014Z,96.84
2023-12-12T17:05:42.360Z,96.98
2023-12-12T17:16:07.576Z,96.98
2023-12-12T17:26:32.430Z,97.48
2023-12-12T17:36:56.911Z,97.72
2023-12-12T17:47:21.606Z,97.39
2023-12-12T17:57:47.156Z,97.49
2023-12-12T18:08:11.944Z,96.84
2023-12-12T18:18:37.648Z,96.23
2023-12-12T18:29:05.072Z,95.65
2023-12-12T18:39:29.131Z,95.95
2023-12-12T18:49:54.221Z,95.71
2023-12-12T19:00:18.993Z,97.25
2023-12-12T19:10:42.924Z,98.34
2023-12-12T19:21:07.227Z,97.95
2023-12-12T19:31:31.636Z,96.73
2023-12-12T19:41:55.486Z,96.77
2023-12-12T19:52:20.466Z,96.24
2023-12-12T20:02:44.983Z,95.94
2023-12-12T20:13:10.404Z,97.07
2023-12-12T20:23:34.799Z,98.24
2023-12-12T20:33:58.920Z,98.85
2023-12-12T20:44:23.262Z,98.37
2023-12-12T20:54:48.350Z,98.16
2023-12-12T21:05:12.873Z,97.72
2023-12-12T21:15:37.372Z,97.76
2023-12-12T21:26:01.933Z,98.01
2023-12-12T21:36:26.287Z,97.88
2023-12-12T21:46:51.887Z,98.23
2023-12-12T21:57:22.044Z,98.60
2023-12-12T22:07:53.583Z,98.84
2023-12-12T22:18:20.084Z,98.91
2023-12-12T22:28:44.749Z,98.88
2023-12-12T22:39:15.902Z,98.90
2023-12-12T22:49:43.103Z,98.58
2023-12-12T23:00:25.847Z,98.83
2023-12-12T23:10:50.763Z,99.19
2023-12-12T23:21:14.747Z,99.36
2023-12-12T23:31:42.000Z,99.54
2023-12-12T23:42:06.834Z,99.63
2023-12-12T23:52:31.040Z,100.00
